Time;durP1;ratioP1;P1;durP2;ratioP2;P2;SDS_P1;SDS_P2;PMS_P1;PMS_P2;Temp;Humidity;BMP_temperature;BMP_pressure;BME280_temperature;BME280_humidity;BME280_pressure;Samples;Min_cycle;Max_cycle;Signal;HPM_P1;HPM_P2
2022/06/12 00:02:27;;;;;;;12.40;3.40;;;10.20;1.00;;;;;;4776750;30;20035;-72
2022/06/12 00:05:14;;;;;;;12.48;3.33;;;10.10;1.00;;;;;;4789676;30;20031;-72
2022/06/12 00:07:46;;;;;;;11.32;3.50;;;10.20;1.00;;;;;;4789687;30;20043;-72
2022/06/12 00:10:17;;;;;;;13.15;3.03;;;10.30;1.00;;;;;;4789446;30;20032;-71
2022/06/12 00:12:51;;;;;;;16.17;3.60;;;10.40;1.00;;;;;;4789694;30;20116;-71
2022/06/12 00:15:24;;;;;;;9.93;3.03;;;10.30;1.00;;;;;;4789377;30;20083;-72
2022/06/12 00:17:50;;;;;;;6.78;3.13;;;10.30;1.00;;;;;;4789451;30;20078;-72
2022/06/12 00:23:18;;;;;;;7.40;3.00;;;10.20;1.00;;;;;;4789159;30;20040;-72
2022/06/12 00:28:45;;;;;;;7.40;2.60;;;10.30;1.00;;;;;;4770298;30;20215;-72
2022/06/12 00:34:05;;;;;;;13.40;3.45;;;10.30;1.00;;;;;;4789305;30;20096;-72
2022/06/12 00:36:31;;;;;;;10.75;2.80;;;10.30;1.00;;;;;;4788939;30;20062;-72
2022/06/12 00:39:08;;;;;;;11.52;3.03;;;10.40;1.00;;;;;;4789093;30;20063;-72
2022/06/12 00:41:38;;;;;;;9.77;2.70;;;10.30;1.00;;;;;;4789490;30;20403;-72
2022/06/12 00:44:08;;;;;;;;;;;10.20;1.00;;;;;;4778101;30;20071;-72
2022/06/12 00:46:47;;;;;;;11.70;3.03;;;10.10;1.00;;;;;;4787544;30;19917;-72
2022/06/12 00:49:31;;;;;;;12.98;2.60;;;10.00;1.00;;;;;;4777879;30;20469;-72
2022/06/12 00:52:06;;;;;;;9.95;3.28;;;10.00;1.00;;;;;;4776984;30;20031;-72
2022/06/12 00:54:37;;;;;;;12.32;3.20;;;10.00;1.00;;;;;;4788815;30;20104;-72
2022/06/12 00:57:08;;;;;;;9.48;3.10;;;10.00;1.00;;;;;;4776893;30;20039;-72
2022/06/12 00:59:36;;;;;;;;;;;10.00;1.00;;;;;;4788939;30;20361;-72
2022/06/12 01:02:14;;;;;;;7.53;2.70;;;10.10;1.00;;;;;;4788542;30;19916;-72
2022/06/12 01:07:58;;;;;;;7.32;2.28;;;10.10;1.10;;;;;;4740514;30;20056;-72
2022/06/12 01:10:28;;;;;;;12.98;2.42;;;10.20;12.60;;;;;;4736852;30;20024;-72
2022/06/12 01:12:58;;;;;;;14.23;2.55;;;10.20;19.90;;;;;;4771554;30;20111;-72
2022/06/12 01:15:33;;;;;;;;;;;10.20;24.40;;;;;;4788765;30;20031;-72
2022/06/12 01:18:11;;;;;;;10.52;2.80;;;10.10;31.80;;;;;;4788319;30;20366;-72
2022/06/12 01:21:03;;;;;;;14.25;2.63;;;10.20;43.50;;;;;;4788044;30;20034;-72
2022/06/12 01:23:53;;;;;;;17.00;3.05;;;10.20;57.10;;;;;;4788532;30;20038;-72
2022/06/12 01:26:37;;;;;;;;;;;10.00;55.00;;;;;;4770700;30;20443;-72
2022/06/12 01:29:43;;;;;;;9.43;2.55;;;9.80;29.40;;;;;;4782206;30;19909;-72
2022/06/12 01:32:18;;;;;;;14.43;3.00;;;9.90;35.90;;;;;;4776762;30;20436;-72
2022/06/12 01:35:22;;;;;;;7.65;2.53;;;9.90;16.20;;;;;;4788080;30;20046;-72
2022/06/12 01:38:15;;;;;;;15.68;2.83;;;9.70;1.00;;;;;;4788177;30;20046;-72
2022/06/12 01:41:00;;;;;;;11.75;2.65;;;9.90;4.10;;;;;;4783188;30;20043;-72
2022/06/12 01:43:48;;;;;;;13.88;3.10;;;9.80;1.00;;;;;;4778162;30;20073;-72
2022/06/12 01:46:16;;;;;;;11.65;2.97;;;9.70;1.00;;;;;;4787783;30;20484;-72
2022/06/12 01:49:02;;;;;;;10.95;2.63;;;9.70;1.00;;;;;;4778356;30;20032;-72
2022/06/12 01:51:37;;;;;;;13.10;3.42;;;9.70;1.00;;;;;;4774384;30;20031;-72
2022/06/12 01:54:26;;;;;;;9.30;2.80;;;9.70;1.00;;;;;;4787594;30;20035;-72
2022/06/12 01:57:32;;;;;;;11.43;2.53;;;9.80;1.00;;;;;;4769745;30;20032;-72
2022/06/12 02:00:02;;;;;;;10.57;2.83;;;9.80;1.00;;;;;;4767911;30;20036;-72
2022/06/12 02:02:44;;;;;;;11.05;2.63;;;9.90;13.10;;;;;;4787608;30;20028;-72
2022/06/12 02:05:44;;;;;;;11.90;3.83;;;9.90;18.40;;;;;;4787009;30;20058;-72
2022/06/12 02:08:19;;;;;;;12.77;3.20;;;9.90;19.80;;;;;;4787191;30;20519;-72
2022/06/12 02:14:19;;;;;;;18.42;3.38;;;10.10;38.50;;;;;;4769221;30;20062;-72
2022/06/12 02:16:58;;;;;;;12.75;2.75;;;10.20;60.10;;;;;;4784771;30;20051;-72
2022/06/12 02:19:31;;;;;;;15.15;3.80;;;10.30;71.50;;;;;;4779044;30;20023;-72
2022/06/12 02:22:20;;;;;;;19.15;3.90;;;10.30;83.20;;;;;;4787333;30;20039;-72
2022/06/12 02:25:04;;;;;;;12.98;3.42;;;10.40;94.00;;;;;;4786646;30;20027;-71
2022/06/12 02:28:03;;;;;;;15.60;2.80;;;10.40;99.90;;;;;;4775979;30;20039;-73
2022/06/12 02:30:38;;;;;;;12.87;3.23;;;10.40;99.90;;;;;;4787156;30;20035;-72
2022/06/12 02:33:21;;;;;;;15.35;3.33;;;10.50;99.90;;;;;;4787196;30;20110;-72
2022/06/12 02:35:58;;;;;;;14.43;4.18;;;10.40;99.90;;;;;;4786890;30;20400;-72
2022/06/12 02:38:48;;;;;;;14.05;3.55;;;10.40;99.90;;;;;;4787194;30;20059;-72
2022/06/12 02:41:29;;;;;;;17.67;3.63;;;10.50;99.90;;;;;;4775637;30;20023;-72
2022/06/12 02:44:24;;;;;;;13.32;4.03;;;10.60;99.90;;;;;;4786498;30;20038;-73
2022/06/12 02:47:20;;;;;;;13.05;3.30;;;10.80;99.90;;;;;;4786936;30;20488;-72
2022/06/12 02:49:51;;;;;;;15.95;3.78;;;10.60;99.90;;;;;;4773113;30;20036;-72
2022/06/12 02:52:56;;;;;;;11.90;2.95;;;10.50;99.90;;;;;;4786911;30;20028;-72
2022/06/12 02:55:54;;;;;;;12.77;3.38;;;10.50;99.90;;;;;;4765663;30;20419;-72
2022/06/12 02:58:32;;;;;;;12.90;3.17;;;10.50;99.90;;;;;;4776561;30;20484;-72
2022/06/12 03:01:31;;;;;;;12.07;3.30;;;10.50;99.90;;;;;;4786942;30;20027;-72
2022/06/12 03:04:38;;;;;;;11.60;4.13;;;10.40;99.90;;;;;;4783436;30;20059;-72
2022/06/12 03:07:04;;;;;;;13.35;3.15;;;10.30;99.90;;;;;;4759213;30;20275;-72
2022/06/12 03:09:30;;;;;;;13.93;3.10;;;10.40;99.90;;;;;;4786755;30;20492;-72
2022/06/12 03:11:58;;;;;;;10.15;3.65;;;10.40;99.90;;;;;;4786665;30;20119;-72
2022/06/12 03:14:31;;;;;;;15.00;3.67;;;10.20;99.90;;;;;;4786835;30;20384;-72
2022/06/12 03:17:03;;;;;;;11.40;3.38;;;10.30;99.90;;;;;;4786730;30;20457;-72
2022/06/12 03:19:42;;;;;;;9.73;3.22;;;10.30;99.90;;;;;;4786833;30;20042;-72
2022/06/12 03:22:39;;;;;;;14.85;3.53;;;10.60;99.90;;;;;;4786846;30;20036;-72
2022/06/12 03:25:17;;;;;;;15.93;3.33;;;10.40;99.90;;;;;;4785466;30;20049;-72
2022/06/12 03:27:48;;;;;;;20.23;4.10;;;10.60;99.90;;;;;;4786785;30;20457;-72
2022/06/12 03:30:29;;;;;;;15.77;3.50;;;10.60;99.90;;;;;;4787182;30;20038;-72
2022/06/12 03:33:18;;;;;;;15.48;4.35;;;10.80;99.90;;;;;;4786663;30;20059;-72
2022/06/12 03:35:59;;;;;;;18.73;4.05;;;10.60;99.90;;;;;;4788522;29;20027;-72
2022/06/12 03:39:02;;;;;;;26.95;4.30;;;10.80;99.90;;;;;;4779068;30;20024;-72
2022/06/12 03:41:44;;;;;;;20.95;3.70;;;11.10;99.90;;;;;;4780261;30;20046;-72
2022/06/12 03:44:34;;;;;;;11.52;3.65;;;11.20;99.90;;;;;;4789911;30;20108;-72
2022/06/12 03:47:25;;;;;;;22.42;4.55;;;11.40;99.90;;;;;;4778320;30;20473;-72
2022/06/12 03:50:07;;;;;;;;;;;11.70;99.90;;;;;;4779857;30;20054;-72
2022/06/12 03:52:53;;;;;;;19.65;4.97;;;11.70;99.90;;;;;;4789833;30;19910;-72
2022/06/12 03:58:54;;;;;;;21.65;4.10;;;11.90;99.90;;;;;;4779618;30;20054;-72
2022/06/12 04:01:25;;;;;;;25.35;4.38;;;12.10;99.90;;;;;;4789665;30;20035;-72
2022/06/12 04:04:07;;;;;;;18.13;4.13;;;12.00;99.90;;;;;;4789635;30;20032;-72
2022/06/12 04:06:45;;;;;;;22.70;4.80;;;12.30;99.90;;;;;;4789592;30;20020;-72
2022/06/12 04:09:18;;;;;;;17.27;4.43;;;13.40;99.90;;;;;;4789576;30;20046;-72
2022/06/12 04:12:02;;;;;;;22.95;4.68;;;13.10;99.90;;;;;;4777312;30;20111;-72
2022/06/12 04:14:43;;;;;;;19.92;4.90;;;12.80;1.00;;;;;;4789231;30;20128;-72
2022/06/12 04:17:21;;;;;;;19.88;4.68;;;14.10;1.00;;;;;;4789332;30;20031;-72
2022/06/12 04:19:59;;;;;;;18.73;4.28;;;14.30;1.00;;;;;;4787636;30;20150;-72
2022/06/12 04:22:37;;;;;;;13.05;3.97;;;13.80;1.00;;;;;;4789375;30;20636;-72
2022/06/12 04:25:28;;;;;;;16.77;4.00;;;13.80;1.00;;;;;;4781563;30;20031;-72
2022/06/12 04:27:54;;;;;;;11.73;3.60;;;13.80;1.00;;;;;;4783725;30;20048;-73
2022/06/12 04:30:42;;;;;;;16.20;3.92;;;14.40;1.00;;;;;;4776563;30;20028;-73
2022/06/12 04:33:46;;;;;;;16.38;3.95;;;14.20;1.00;;;;;;4779912;30;20043;-73
2022/06/12 04:36:15;;;;;;;17.95;3.78;;;14.20;1.00;;;;;;4778299;30;20050;-72
2022/06/12 04:38:47;;;;;;;20.55;4.00;;;14.40;1.00;;;;;;4784231;30;20031;-73
2022/06/12 04:41:22;;;;;;;22.42;3.63;;;15.80;99.90;;;;;;4789402;30;20062;-73
2022/06/12 04:43:53;;;;;;;17.08;4.15;;;15.80;99.90;;;;;;4788539;30;20058;-74
2022/06/12 04:46:20;;;;;;;16.30;4.55;;;16.70;99.90;;;;;;4788691;29;20472;-73
2022/06/12 04:48:49;;;;;;;19.58;4.57;;;16.90;99.90;;;;;;4788724;30;20045;-72
2022/06/12 04:51:15;;;;;;;14.02;3.50;;;18.40;99.90;;;;;;4775924;30;20079;-73
2022/06/12 04:53:55;;;;;;;14.65;3.42;;;19.80;99.90;;;;;;4788224;30;20472;-73
2022/06/12 04:56:26;;;;;;;11.35;3.60;;;20.00;99.90;;;;;;4783620;30;20101;-73
2022/06/12 04:58:58;;;;;;;17.15;4.38;;;18.40;99.90;;;;;;4782004;30;20047;-73
2022/06/12 05:01:50;;;;;;;15.25;3.60;;;17.80;99.90;;;;;;4788688;30;20458;-73
2022/06/12 05:04:32;;;;;;;15.27;4.50;;;17.60;99.90;;;;;;4788071;30;20054;-73
2022/06/12 05:07:04;;;;;;;19.00;3.92;;;20.60;99.90;;;;;;4788536;30;20066;-73
2022/06/12 05:09:42;;;;;;;10.80;3.22;;;20.40;99.90;;;;;;4788423;30;20536;-73
2022/06/12 05:12:13;;;;;;;18.13;4.18;;;19.60;99.90;;;;;;4788526;30;20088;-73
2022/06/12 05:14:42;;;;;;;14.10;3.35;;;20.50;99.90;;;;;;4788449;30;20683;-73
2022/06/12 05:17:22;;;;;;;15.20;3.63;;;22.20;99.90;;;;;;4788140;30;20035;-73
2022/06/12 05:19:51;;;;;;;12.90;3.72;;;25.00;99.90;;;;;;4788489;30;20055;-73
2022/06/12 05:22:25;;;;;;;16.30;3.38;;;26.60;99.90;;;;;;4780122;30;20077;-73
2022/06/12 05:24:53;;;;;;;11.68;2.90;;;28.40;99.90;;;;;;4785069;30;20508;-73
2022/06/12 05:27:31;;;;;;;21.13;4.40;;;28.80;99.90;;;;;;4780181;30;20035;-73
2022/06/12 05:30:06;;;;;;;12.85;3.10;;;29.70;99.90;;;;;;4783062;30;20080;-73
2022/06/12 05:32:36;;;;;;;12.80;3.05;;;28.70;99.90;;;;;;4779305;30;20403;-73
2022/06/12 05:35:08;;;;;;;13.98;3.13;;;30.70;99.90;;;;;;4787943;30;20031;-73
2022/06/12 05:37:35;;;;;;;13.70;3.38;;;30.00;99.90;;;;;;4775342;30;20676;-74
2022/06/12 05:40:24;;;;;;;16.08;3.97;;;29.40;68.00;;;;;;4787879;30;20034;-74
2022/06/12 05:42:55;;;;;;;12.77;3.78;;;30.70;72.30;;;;;;4778217;30;20023;-74
2022/06/12 05:45:23;;;;;;;13.70;3.20;;;29.00;67.90;;;;;;4786719;30;20059;-73
2022/06/12 05:48:04;;;;;;;14.18;3.17;;;31.30;65.40;;;;;;4778759;30;20569;-73
2022/06/12 05:50:34;;;;;;;17.65;4.22;;;31.20;68.20;;;;;;4782143;30;20380;-73
2022/06/12 05:52:59;;;;;;;14.45;3.38;;;33.30;53.80;;;;;;4775694;30;20027;-74
2022/06/12 05:55:35;;;;;;;15.73;3.10;;;34.60;46.60;;;;;;4787642;30;20047;-74
2022/06/12 05:58:06;;;;;;;12.15;2.75;;;33.50;49.70;;;;;;4787234;29;20532;-74
2022/06/12 06:00:38;;;;;;;11.48;3.15;;;34.80;38.30;;;;;;4783899;30;20480;-73
2022/06/12 06:03:06;;;;;;;14.90;4.00;;;35.70;32.70;;;;;;4787347;30;20054;-73
2022/06/12 06:05:42;;;;;;;13.07;2.92;;;36.30;30.00;;;;;;4787471;30;20067;-74
2022/06/12 06:08:30;;;;;;;11.48;2.47;;;36.50;32.60;;;;;;4777609;30;20349;-74
2022/06/12 06:10:56;;;;;;;9.57;2.50;;;35.30;34.40;;;;;;4787484;30;20074;-74
2022/06/12 06:13:27;;;;;;;15.50;3.17;;;33.70;38.50;;;;;;4787462;30;20073;-74
2022/06/12 06:16:07;;;;;;;8.38;2.55;;;35.70;32.10;;;;;;4787240;30;20496;-74
2022/06/12 06:18:40;;;;;;;;;;;36.60;32.60;;;;;;4770302;30;20534;-74
2022/06/12 06:21:14;;;;;;;8.75;2.40;;;38.10;29.20;;;;;;4793584;29;19912;-74
2022/06/12 06:23:52;;;;;;;9.20;2.20;;;38.40;26.30;;;;;;4805097;29;20675;-74
2022/06/12 06:26:38;;;;;;;8.32;2.22;;;38.50;30.50;;;;;;4789183;29;20031;-74
2022/06/12 06:29:09;;;;;;;9.55;2.25;;;38.90;28.10;;;;;;4787118;30;20456;-74
2022/06/12 06:31:44;;;;;;;10.07;2.28;;;35.70;32.50;;;;;;4787459;30;20065;-74
2022/06/12 06:34:15;;;;;;;7.88;1.60;;;37.80;28.10;;;;;;4787197;30;20038;-74
2022/06/12 06:37:10;;;;;;;8.93;2.22;;;39.30;26.00;;;;;;4787128;30;20060;-74
2022/06/12 06:39:38;;;;;;;7.90;2.30;;;40.20;24.40;;;;;;4776296;30;20127;-74
2022/06/12 06:42:24;;;;;;;9.57;2.03;;;37.60;24.70;;;;;;4787286;30;20089;-74
2022/06/12 06:47:44;;;;;;;7.80;2.10;;;32.90;44.40;;;;;;4787346;30;20439;-74
2022/06/12 06:50:12;;;;;;;7.55;1.92;;;31.60;51.50;;;;;;4787021;30;20035;-74
2022/06/12 06:52:41;;;;;;;7.15;2.10;;;35.20;39.60;;;;;;4787046;30;20027;-74
2022/06/12 06:55:11;;;;;;;4.37;1.87;;;33.90;40.20;;;;;;4787009;30;20156;-74
2022/06/12 06:57:42;;;;;;;8.20;2.55;;;32.80;49.40;;;;;;4786923;30;20043;-74
2022/06/12 07:00:19;;;;;;;6.80;1.73;;;31.20;51.20;;;;;;4787089;30;20460;-74
2022/06/12 07:02:44;;;;;;;5.32;2.05;;;30.80;57.50;;;;;;4786925;30;20087;-74
2022/06/12 07:05:29;;;;;;;6.13;1.80;;;31.70;52.30;;;;;;4786904;30;20031;-74
2022/06/12 07:07:55;;;;;;;6.25;1.75;;;31.00;58.10;;;;;;4774333;30;20487;-73
2022/06/12 07:10:23;;;;;;;6.65;1.85;;;30.70;57.30;;;;;;4788099;29;20175;-73
2022/06/12 07:12:52;;;;;;;6.10;1.70;;;35.10;48.50;;;;;;4789170;30;20373;-73
2022/06/12 07:15:32;;;;;;;5.50;1.80;;;37.80;31.60;;;;;;4779681;30;20035;-73
2022/06/12 07:18:18;;;;;;;6.55;1.83;;;40.10;27.00;;;;;;4785098;30;20046;-73
2022/06/12 07:20:55;;;;;;;5.07;2.00;;;41.30;26.20;;;;;;4781364;30;20035;-73
2022/06/12 07:23:23;;;;;;;5.50;1.88;;;41.50;28.10;;;;;;4790145;30;20058;-72
2022/06/12 07:25:54;;;;;;;5.20;1.63;;;41.70;26.40;;;;;;4790006;30;20039;-73
2022/06/12 07:28:23;;;;;;;3.97;1.50;;;42.00;27.20;;;;;;4790328;30;20046;-73
2022/06/12 07:30:50;;;;;;;4.80;1.70;;;41.80;26.00;;;;;;4791019;30;20107;-73
2022/06/12 07:33:28;;;;;;;4.15;1.55;;;41.90;27.80;;;;;;4790059;30;20039;-73
2022/06/12 07:35:56;;;;;;;6.45;1.60;;;42.90;24.80;;;;;;4790254;30;20075;-73
2022/06/12 07:38:37;;;;;;;4.90;1.77;;;43.20;22.70;;;;;;4790273;30;20111;-73
2022/06/12 07:41:06;;;;;;;6.13;1.98;;;43.30;26.00;;;;;;4790019;30;20046;-73
2022/06/12 07:43:36;;;;;;;6.63;1.70;;;42.70;25.20;;;;;;4800736;29;20035;-73
2022/06/12 07:46:23;;;;;;;6.55;1.65;;;42.30;23.70;;;;;;4794023;29;20059;-73
2022/06/12 07:48:49;;;;;;;4.80;1.60;;;42.60;27.50;;;;;;4789864;30;20035;-73
2022/06/12 07:51:18;;;;;;;5.00;1.55;;;42.30;24.60;;;;;;4789497;30;20084;-74
2022/06/12 07:53:45;;;;;;;6.57;1.90;;;42.30;26.30;;;;;;4789712;30;20031;-73
2022/06/12 07:56:11;;;;;;;4.82;1.33;;;42.90;26.30;;;;;;4789270;30;20032;-73
2022/06/12 07:58:38;;;;;;;5.50;1.67;;;43.10;25.40;;;;;;4789585;30;20035;-73
2022/06/12 08:01:10;;;;;;;5.13;1.90;;;43.70;23.00;;;;;;4789256;30;20031;-73
2022/06/12 08:03:46;;;;;;;5.55;1.92;;;43.70;20.50;;;;;;4789412;30;20039;-73
2022/06/12 08:06:18;;;;;;;6.78;1.77;;;44.50;20.90;;;;;;4789309;30;20118;-73
2022/06/12 08:08:53;;;;;;;5.15;1.60;;;44.00;19.60;;;;;;4789308;30;20059;-73
2022/06/12 08:11:22;;;;;;;5.32;1.88;;;43.70;21.10;;;;;;4789129;30;20094;-73
2022/06/12 08:13:58;;;;;;;4.90;1.90;;;44.00;21.80;;;;;;4789268;30;20085;-73
2022/06/12 08:16:24;;;;;;;9.63;1.75;;;43.70;22.10;;;;;;4789202;30;20070;-73
2022/06/12 08:18:50;;;;;;;5.32;1.77;;;44.10;20.30;;;;;;4789266;30;20461;-73
2022/06/12 08:21:19;;;;;;;3.80;1.40;;;43.80;19.40;;;;;;4788386;29;20039;-73
2022/06/12 08:23:57;;;;;;;4.20;1.40;;;44.10;18.80;;;;;;4788955;30;20037;-73
2022/06/12 08:26:33;;;;;;;6.93;1.65;;;44.00;17.10;;;;;;4781635;30;20043;-74
2022/06/12 08:29:04;;;;;;;7.25;1.85;;;43.30;18.10;;;;;;4789239;30;20092;-74
2022/06/12 08:32:07;;;;;;;4.78;1.58;;;43.00;22.10;;;;;;4788816;30;20106;-73
2022/06/12 08:34:58;;;;;;;6.18;1.90;;;41.60;19.20;;;;;;4770751;30;20044;-73
2022/06/12 08:37:31;;;;;;;7.60;1.98;;;43.90;21.60;;;;;;4770960;30;20393;-73
2022/06/12 08:40:44;;;;;;;4.55;1.95;;;44.40;21.20;;;;;;4780749;30;20150;-73
2022/06/12 08:43:34;;;;;;;6.05;1.55;;;44.20;22.70;;;;;;4729661;30;20149;-73
2022/06/12 08:46:29;;;;;;;5.05;1.52;;;44.40;19.60;;;;;;4770842;30;20066;-73
2022/06/12 08:49:20;;;;;;;4.40;1.70;;;44.70;22.20;;;;;;4771033;30;20077;-74
2022/06/12 08:52:05;;;;;;;3.88;1.42;;;45.50;20.30;;;;;;4761163;30;20496;-73
2022/06/12 08:54:46;;;;;;;5.28;1.58;;;45.30;19.20;;;;;;4770976;30;20027;-74
2022/06/12 08:58:06;;;;;;;6.13;1.98;;;43.50;21.20;;;;;;4772030;30;20040;-73
2022/06/12 09:00:41;;;;;;;4.75;1.77;;;44.60;20.10;;;;;;4715839;30;20426;-73
2022/06/12 09:03:17;;;;;;;6.30;1.65;;;44.00;22.10;;;;;;4749761;30;20048;-73
2022/06/12 09:09:09;;;;;;;4.57;1.92;;;43.90;22.80;;;;;;4772606;29;20070;-73
2022/06/12 09:12:03;;;;;;;5.82;1.70;;;44.00;23.60;;;;;;4775119;30;20511;-73
2022/06/12 09:14:41;;;;;;;4.57;1.40;;;42.40;27.70;;;;;;4788371;30;20055;-73
2022/06/12 09:17:57;;;;;;;4.30;1.50;;;41.80;27.10;;;;;;4788301;30;20043;-73
2022/06/12 09:20:49;;;;;;;5.03;1.75;;;41.00;30.30;;;;;;4786682;30;20397;-73
2022/06/12 09:23:49;;;;;;;5.20;1.77;;;41.40;30.60;;;;;;4788146;30;20042;-73
2022/06/12 09:26:39;;;;;;;3.80;1.88;;;41.20;29.90;;;;;;4779600;30;20069;-73
2022/06/12 09:29:45;;;;;;;6.05;2.03;;;41.20;29.60;;;;;;4788064;30;20084;-73
2022/06/12 09:32:46;;;;;;;7.05;1.88;;;42.40;29.40;;;;;;4785652;30;20114;-73
2022/06/12 09:35:29;;;;;;;5.68;2.10;;;43.10;28.20;;;;;;4787871;30;20118;-73
2022/06/12 09:38:27;;;;;;;6.30;2.20;;;38.90;31.80;;;;;;4777136;30;20046;-73
2022/06/12 09:41:02;;;;;;;5.80;1.95;;;41.50;33.10;;;;;;4787324;30;20023;-73
2022/06/12 09:44:16;;;;;;;5.53;2.03;;;42.00;28.80;;;;;;4787670;30;20027;-73
2022/06/12 09:47:03;;;;;;;7.45;2.88;;;42.10;29.40;;;;;;4779126;30;20082;-73
2022/06/12 09:49:50;;;;;;;7.82;2.17;;;41.70;29.10;;;;;;4787683;30;20080;-73
2022/06/12 09:52:25;;;;;;;6.93;1.88;;;42.10;31.20;;;;;;4787431;30;20035;-73
2022/06/12 09:55:19;;;;;;;7.72;2.03;;;39.70;31.30;;;;;;4787754;30;20035;-73
2022/06/12 09:58:23;;;;;;;7.65;2.00;;;38.70;42.00;;;;;;4778793;30;20050;-73
2022/06/12 10:01:16;;;;;;;8.98;2.47;;;35.00;54.00;;;;;;4756395;30;20109;-73
2022/06/12 10:03:50;;;;;;;5.03;1.98;;;36.40;58.50;;;;;;4787721;30;20046;-73
2022/06/12 10:07:00;;;;;;;5.97;2.38;;;36.40;57.90;;;;;;4787880;30;20038;-73
2022/06/12 10:09:57;;;;;;;7.38;2.28;;;35.10;61.50;;;;;;4766089;30;20123;-73
2022/06/12 10:12:32;;;;;;;6.30;2.25;;;36.30;51.50;;;;;;4787507;30;20454;-73
2022/06/12 10:15:19;;;;;;;8.45;2.00;;;33.30;64.10;;;;;;4787259;30;20043;-72
2022/06/12 10:18:05;;;;;;;6.53;2.22;;;34.30;60.40;;;;;;4787140;30;20126;-73
2022/06/12 10:20:51;;;;;;;12.13;2.95;;;36.30;59.80;;;;;;4777583;30;20035;-73
2022/06/12 10:23:20;;;;;;;6.45;2.53;;;36.50;58.20;;;;;;4786986;30;20485;-73
2022/06/12 10:26:01;;;;;;;9.77;2.58;;;34.50;61.70;;;;;;4787116;30;20027;-73
2022/06/12 10:28:36;;;;;;;7.47;2.53;;;34.60;65.60;;;;;;4787164;30;20080;-73
2022/06/12 10:31:14;;;;;;;7.75;2.35;;;34.40;71.60;;;;;;4796290;29;20031;-73
2022/06/12 10:33:48;;;;;;;6.13;1.60;;;36.50;61.10;;;;;;4773626;30;20027;-72
2022/06/12 10:36:29;;;;;;;8.23;2.38;;;37.80;54.40;;;;;;4783606;30;20036;-73
2022/06/12 10:39:14;;;;;;;6.68;2.15;;;37.30;55.10;;;;;;4787148;30;20035;-73
2022/06/12 10:42:00;;;;;;;7.72;2.47;;;34.30;61.60;;;;;;4786915;30;20453;-73
2022/06/12 10:44:36;;;;;;;5.22;1.80;;;36.00;62.20;;;;;;4785380;30;20142;-73
2022/06/12 10:47:14;;;;;;;9.18;2.38;;;37.70;50.90;;;;;;4791422;30;20040;-73
2022/06/12 10:49:52;;;;;;;6.13;2.13;;;34.30;61.70;;;;;;4789444;30;20039;-72
2022/06/12 10:52:23;;;;;;;9.27;2.70;;;36.50;57.30;;;;;;4793109;30;20023;-72
2022/06/12 10:54:54;;;;;;;7.78;2.35;;;37.00;54.90;;;;;;4792928;30;20084;-72
2022/06/12 10:57:45;;;;;;;6.28;2.30;;;37.30;53.80;;;;;;4792873;30;20039;-73
2022/06/12 11:00:24;;;;;;;5.68;1.88;;;36.90;54.00;;;;;;4792895;30;20442;-74
2022/06/12 11:03:47;;;;;;;8.07;2.20;;;36.90;55.50;;;;;;4793375;30;20498;-72
2022/06/12 11:06:27;;;;;;;7.20;1.80;;;37.40;53.60;;;;;;4719550;30;20068;-73
2022/06/12 11:09:00;;;;;;;;;;;36.30;59.20;;;;;;4720170;30;20075;-73
2022/06/12 11:11:53;;;;;;;7.75;2.05;;;34.80;65.70;;;;;;4719665;30;19914;-73
2022/06/12 11:14:55;;;;;;;6.55;2.30;;;35.50;65.20;;;;;;4702184;30;20050;-72
2022/06/12 11:17:59;;;;;;;5.32;2.28;;;34.60;72.30;;;;;;4729565;30;20051;-73
2022/06/12 11:20:48;;;;;;;5.63;2.72;;;33.90;76.20;;;;;;4774907;30;20535;-74
2022/06/12 11:27:00;;;;;;;8.18;2.28;;;29.60;92.60;;;;;;4775517;30;20126;-73
2022/06/12 11:29:56;;;;;;;6.40;2.35;;;29.20;97.10;;;;;;4774745;30;20032;-73
2022/06/12 11:32:57;;;;;;;14.40;3.08;;;28.60;98.50;;;;;;4774954;30;20173;-73
2022/06/12 11:35:40;;;;;;;8.23;2.15;;;28.10;99.90;;;;;;4774782;30;20147;-73
2022/06/12 11:38:37;;;;;;;6.30;2.17;;;27.70;99.90;;;;;;4774913;30;20508;-73
2022/06/12 11:41:34;;;;;;;8.13;2.20;;;27.50;99.90;;;;;;4776396;30;20031;-72
2022/06/12 11:44:42;;;;;;;4.25;1.70;;;27.70;99.90;;;;;;4774844;30;20036;-71
2022/06/12 11:47:34;;;;;;;8.18;2.35;;;27.50;99.90;;;;;;4774963;30;20115;-74
2022/06/12 11:50:38;;;;;;;7.72;2.22;;;26.90;99.90;;;;;;4774738;30;20069;-72
2022/06/12 11:53:24;;;;;;;8.15;2.20;;;27.20;99.90;;;;;;4774761;30;20093;-73
2022/06/12 11:56:33;;;;;;;7.28;2.22;;;27.60;99.90;;;;;;4774095;30;20034;-73
2022/06/12 11:59:24;;;;;;;7.78;2.40;;;27.30;99.90;;;;;;4771922;30;20093;-73
2022/06/12 12:02:24;;;;;;;7.95;2.65;;;27.30;99.90;;;;;;4771636;30;20472;-73
2022/06/12 12:05:26;;;;;;;10.52;2.10;;;27.90;99.90;;;;;;4771759;30;20048;-73
2022/06/12 12:08:21;;;;;;;7.82;2.20;;;27.80;99.90;;;;;;4771713;30;20044;-74
2022/06/12 12:11:09;;;;;;;6.78;2.10;;;27.00;99.90;;;;;;4712741;30;20037;-73
2022/06/12 12:14:00;;;;;;;8.20;2.38;;;26.70;99.90;;;;;;4789553;30;20031;-74
2022/06/12 12:16:40;;;;;;;6.65;1.98;;;26.60;99.90;;;;;;4775935;30;20043;-74
2022/06/12 12:19:14;;;;;;;6.28;2.03;;;27.10;99.90;;;;;;4789468;30;20038;-72
2022/06/12 12:21:50;;;;;;;3.60;2.10;;;26.80;99.90;;;;;;4771450;30;20032;-72
2022/06/12 12:25:00;;;;;;;5.88;1.92;;;26.80;99.90;;;;;;4771507;30;20043;-72
2022/06/12 12:27:52;;;;;;;5.93;2.70;;;26.80;99.90;;;;;;4740888;30;20044;-73
2022/06/12 12:30:27;;;;;;;6.18;1.98;;;26.70;99.90;;;;;;4789124;30;20564;-73
2022/06/12 12:33:02;;;;;;;6.20;2.10;;;26.20;99.90;;;;;;4789099;30;20027;-73
2022/06/12 12:41:12;;;;;;;7.28;2.03;;;26.40;99.90;;;;;;4788856;30;20054;-73
2022/06/12 12:44:21;;;;;;;6.47;2.03;;;26.10;99.90;;;;;;4788542;30;20485;-73
2022/06/12 12:53:38;;;;;;;5.25;2.17;;;25.90;99.90;;;;;;4780448;30;20416;-73
2022/06/12 12:56:07;;;;;;;7.45;2.03;;;25.50;99.90;;;;;;4788491;30;20034;-73
2022/06/12 12:58:54;;;;;;;6.80;2.45;;;25.60;99.90;;;;;;4788587;30;20115;-72
2022/06/12 13:01:31;;;;;;;5.75;1.80;;;26.10;99.90;;;;;;4788592;30;20039;-73
2022/06/12 13:04:12;;;;;;;8.18;1.98;;;25.90;99.90;;;;;;4788934;30;20042;-73
2022/06/12 13:07:05;;;;;;;5.90;1.88;;;25.30;99.90;;;;;;4770706;30;20584;-73
2022/06/12 13:09:57;;;;;;;6.97;1.75;;;24.70;99.90;;;;;;4770272;30;20116;-73
2022/06/12 13:12:40;;;;;;;7.93;2.05;;;25.20;99.90;;;;;;4791626;29;20117;-73
2022/06/12 13:15:44;;;;;;;8.30;2.40;;;24.80;99.90;;;;;;4770584;30;20382;-73
2022/06/12 13:18:39;;;;;;;9.82;2.38;;;25.60;99.90;;;;;;4770455;30;20044;-73
2022/06/12 13:21:17;;;;;;;7.38;2.70;;;25.90;99.90;;;;;;4784294;30;20372;-73
2022/06/12 13:24:20;;;;;;;9.98;2.70;;;25.00;99.90;;;;;;4788351;30;20031;-73
2022/06/12 13:26:56;;;;;;;5.10;2.00;;;25.30;99.90;;;;;;4789076;29;20119;-73
2022/06/12 13:29:30;;;;;;;5.85;2.03;;;25.50;99.90;;;;;;4788323;30;20035;-73
2022/06/12 13:31:59;;;;;;;7.90;2.38;;;24.20;99.90;;;;;;4788136;30;20039;-73
2022/06/12 13:34:30;;;;;;;5.72;2.30;;;24.40;99.90;;;;;;4788053;30;20030;-73
2022/06/12 13:37:17;;;;;;;6.45;1.80;;;25.10;99.90;;;;;;4787850;30;20044;-73
2022/06/12 13:39:50;;;;;;;5.70;2.35;;;25.10;99.90;;;;;;4777967;30;20031;-73
2022/06/12 13:42:25;;;;;;;8.10;2.30;;;23.90;99.90;;;;;;4787814;30;20024;-73
2022/06/12 13:44:56;;;;;;;7.18;2.40;;;24.90;99.90;;;;;;4787895;30;20686;-73
2022/06/12 13:47:33;;;;;;;10.75;2.45;;;25.70;99.90;;;;;;4787729;30;20153;-73
2022/06/12 13:50:07;;;;;;;6.70;2.55;;;25.90;99.90;;;;;;4787809;30;20116;-73
2022/06/12 13:53:26;;;;;;;7.38;2.45;;;25.30;99.90;;;;;;4787249;30;20087;-73
2022/06/12 13:55:57;;;;;;;10.57;2.58;;;24.70;99.90;;;;;;4783905;30;20027;-73
2022/06/12 13:58:40;;;;;;;7.03;2.85;;;24.90;99.90;;;;;;4787955;30;20039;-73
2022/06/12 14:01:05;;;;;;;10.45;2.72;;;24.40;99.90;;;;;;4787517;30;20446;-73
2022/06/12 14:06:55;;;;;;;10.30;2.95;;;24.20;99.90;;;;;;4773346;30;20058;-72
2022/06/12 14:09:35;;;;;;;8.75;2.95;;;24.40;99.90;;;;;;4787471;30;20085;-73
2022/06/12 14:12:04;;;;;;;6.18;2.25;;;24.40;99.90;;;;;;4787315;30;20034;-73
2022/06/12 14:14:59;;;;;;;7.63;2.67;;;24.60;99.90;;;;;;4787176;30;20027;-73
2022/06/12 14:17:30;;;;;;;9.30;2.38;;;24.60;99.90;;;;;;4753587;30;20401;-73
2022/06/12 14:20:17;;;;;;;7.20;2.50;;;24.20;99.90;;;;;;4786678;29;20114;-73
2022/06/12 14:22:58;;;;;;;9.43;2.88;;;23.70;99.90;;;;;;4787280;30;20032;-73
2022/06/12 14:25:58;;;;;;;7.55;2.50;;;23.60;99.90;;;;;;4769442;30;20098;-72
2022/06/12 14:28:28;;;;;;;6.22;2.33;;;24.30;99.90;;;;;;4769032;30;20059;-73
2022/06/12 14:30:56;;;;;;;8.65;2.97;;;24.10;99.90;;;;;;4769463;30;20039;-73
2022/06/12 14:33:36;;;;;;;7.80;2.88;;;23.80;99.90;;;;;;4769121;30;20043;-73
2022/06/12 14:36:26;;;;;;;;;;;23.50;99.90;;;;;;4782621;30;20085;-73
2022/06/12 14:38:52;;;;;;;;;;;23.10;99.90;;;;;;4783779;30;19914;-74
2022/06/12 14:41:43;;;;;;;;;;;23.50;99.90;;;;;;4787628;30;20227;-73
2022/06/12 14:44:12;;;;;;;;;;;23.80;99.90;;;;;;4783759;30;19914;-73